Time;durP1;ratioP1;P1;durP2;ratioP2;P2;SDS_P1;SDS_P2;PMS_P1;PMS_P2;Temp;Humidity;BMP_temperature;BMP_pressure;BME280_temperature;BME280_humidity;BME280_pressure;Samples;Min_cycle;Max_cycle;Signal;HPM_P1;HPM_P2
2023/09/26 00:00:36;;;;;;;;;;;16.70;79.40;;;;;;5068116;28;19920;-74
2023/09/26 00:03:02;;;;;;;;;;;16.70;79.40;;;;;;5066693;28;19928;-75
2023/09/26 00:05:28;;;;;;;;;;;16.70;79.50;;;;;;5068119;28;20313;-75
2023/09/26 00:07:54;;;;;;;;;;;16.60;79.40;;;;;;5068320;28;20352;-76
2023/09/26 00:10:20;;;;;;;;;;;16.60;79.40;;;;;;5068343;28;19925;-75
2023/09/26 00:12:46;;;;;;;;;;;16.60;79.30;;;;;;5068019;28;19909;-74
2023/09/26 00:15:12;;;;;;;;;;;16.60;79.40;;;;;;5066717;28;19908;-74
2023/09/26 00:17:37;;;;;;;;;;;16.60;79.40;;;;;;5067935;28;19912;-75
2023/09/26 00:20:09;;;;;;;;;;;16.60;79.40;;;;;;5068111;28;19919;-75
2023/09/26 00:22:36;;;;;;;;;;;16.60;79.40;;;;;;5067842;28;19938;-75
2023/09/26 00:25:02;;;;;;;;;;;16.60;79.40;;;;;;5067869;28;19977;-74
2023/09/26 00:27:28;;;;;;;;;;;16.60;79.40;;;;;;5067829;28;19917;-75
2023/09/26 00:29:53;;;;;;;;;;;16.60;79.30;;;;;;5067852;28;19958;-75
2023/09/26 00:32:19;;;;;;;;;;;16.60;79.40;;;;;;5067842;28;19919;-75
2023/09/26 00:34:44;;;;;;;;;;;16.60;79.40;;;;;;5067694;28;20032;-75
2023/09/26 00:37:10;;;;;;;;;;;16.60;79.40;;;;;;5067807;28;19916;-75
2023/09/26 00:39:36;;;;;;;;;;;16.60;79.40;;;;;;5066378;28;20273;-75
2023/09/26 00:42:02;;;;;;;;;;;16.50;79.40;;;;;;5067732;28;19995;-75
2023/09/26 00:44:27;;;;;;;;;;;16.50;79.40;;;;;;5067512;28;20006;-74
2023/09/26 00:46:53;;;;;;;;;;;16.50;79.40;;;;;;5066651;28;19916;-75
2023/09/26 00:49:19;;;;;;;;;;;16.50;79.40;;;;;;5066305;28;19948;-74
2023/09/26 00:51:44;;;;;;;;;;;16.50;79.40;;;;;;5067594;28;19944;-74
2023/09/26 00:54:10;;;;;;;;;;;16.50;79.40;;;;;;5067592;28;19913;-75
2023/09/26 00:56:38;;;;;;;;;;;16.50;79.40;;;;;;5067601;28;19958;-74
2023/09/26 00:59:03;;;;;;;;;;;16.50;79.40;;;;;;5067523;28;19917;-74
2023/09/26 01:01:31;;;;;;;;;;;16.50;79.40;;;;;;5067387;28;19920;-74
2023/09/26 01:03:57;;;;;;;;;;;16.50;79.40;;;;;;5066135;28;19909;-76
2023/09/26 01:06:23;;;;;;;;;;;16.50;79.50;;;;;;5071145;28;19921;-75
2023/09/26 01:08:48;;;;;;;;;;;16.50;79.50;;;;;;5071503;28;19908;-75
2023/09/26 01:11:15;;;;;;;;;;;16.50;79.50;;;;;;5071420;28;19938;-75
2023/09/26 01:13:40;;;;;;;;;;;16.50;79.50;;;;;;5069913;28;19908;-75
2023/09/26 01:16:13;;;;;;;;;;;16.50;79.50;;;;;;5071355;28;20376;-75
2023/09/26 01:18:39;;;;;;;;;;;16.40;79.40;;;;;;5053395;28;19917;-75
2023/09/26 01:21:04;;;;;;;;;;;16.40;79.50;;;;;;5071078;28;20284;-74
2023/09/26 01:23:30;;;;;;;;;;;16.40;79.40;;;;;;5071038;28;19970;-74
2023/09/26 01:25:55;;;;;;;;;;;16.40;79.50;;;;;;5053003;28;19924;-75
2023/09/26 01:28:21;;;;;;;;;;;16.40;79.40;;;;;;5071042;28;19909;-75
2023/09/26 01:30:47;;;;;;;;;;;16.40;79.40;;;;;;5070981;28;19923;-75
2023/09/26 01:33:16;;;;;;;;;;;16.40;79.40;;;;;;5069609;28;19915;-74
2023/09/26 01:35:42;;;;;;;;;;;16.40;79.50;;;;;;5070888;28;19963;-74
2023/09/26 01:38:07;;;;;;;;;;;16.40;79.50;;;;;;5070807;28;19922;-74
2023/09/26 01:40:33;;;;;;;;;;;16.40;79.40;;;;;;5070726;28;19962;-75
2023/09/26 01:42:58;;;;;;;;;;;16.40;79.40;;;;;;5070714;28;19956;-75
2023/09/26 01:45:24;;;;;;;;;;;16.40;79.40;;;;;;5070750;28;20019;-75
2023/09/26 01:47:50;;;;;;;;;;;16.40;79.40;;;;;;5052762;28;19913;-75
2023/09/26 01:50:16;;;;;;;;;;;16.40;79.40;;;;;;5069767;28;19938;-74
2023/09/26 01:52:42;;;;;;;;;;;16.40;79.40;;;;;;5070561;28;19916;-75
2023/09/26 01:55:13;;;;;;;;;;;16.40;79.40;;;;;;5069266;28;20320;-75
2023/09/26 01:57:38;;;;;;;;;;;16.40;79.40;;;;;;5069187;28;19912;-75
2023/09/26 02:00:11;;;;;;;;;;;16.40;79.30;;;;;;5070578;28;19913;-75
2023/09/26 02:02:41;;;;;;;;;;;16.30;79.30;;;;;;5068916;28;19930;-75
2023/09/26 02:05:07;;;;;;;;;;;16.30;79.40;;;;;;5069061;28;19913;-75
2023/09/26 02:07:33;;;;;;;;;;;16.30;79.40;;;;;;5070304;28;19915;-74
2023/09/26 02:09:59;;;;;;;;;;;16.30;79.40;;;;;;5070332;28;19917;-74
2023/09/26 02:12:24;;;;;;;;;;;16.30;79.40;;;;;;5070200;28;20387;-75
2023/09/26 02:14:50;;;;;;;;;;;16.30;79.40;;;;;;5070085;28;20280;-75
2023/09/26 02:17:15;;;;;;;;;;;16.30;79.40;;;;;;5067346;28;19966;-75
2023/09/26 02:19:41;;;;;;;;;;;16.20;79.40;;;;;;5068789;28;20411;-74
2023/09/26 02:22:07;;;;;;;;;;;16.20;79.30;;;;;;5070113;28;19912;-74
2023/09/26 02:24:32;;;;;;;;;;;16.20;79.40;;;;;;5069953;28;20253;-75
2023/09/26 02:26:58;;;;;;;;;;;16.20;79.40;;;;;;5085566;28;20035;-74
2023/09/26 02:29:24;;;;;;;;;;;16.20;79.40;;;;;;5070173;28;19908;-74
2023/09/26 02:31:49;;;;;;;;;;;16.30;79.50;;;;;;5068679;28;19908;-75
2023/09/26 02:34:15;;;;;;;;;;;16.30;79.40;;;;;;5068590;28;19923;-75
2023/09/26 02:36:40;;;;;;;;;;;16.30;79.50;;;;;;5069811;28;20356;-75
2023/09/26 02:39:06;;;;;;;;;;;16.30;79.40;;;;;;5068388;28;20034;-75
2023/09/26 02:41:32;;;;;;;;;;;16.30;79.50;;;;;;5069754;28;19917;-75
2023/09/26 02:43:58;;;;;;;;;;;16.30;79.50;;;;;;5069520;28;20372;-74
2023/09/26 02:46:24;;;;;;;;;;;16.30;79.50;;;;;;5069574;28;19913;-74
2023/09/26 02:48:50;;;;;;;;;;;16.30;79.50;;;;;;5069621;28;19989;-74
2023/09/26 02:51:15;;;;;;;;;;;16.30;79.50;;;;;;5069868;28;19952;-75
2023/09/26 02:53:41;;;;;;;;;;;16.40;79.50;;;;;;5069298;28;19920;-75
2023/09/26 02:56:10;;;;;;;;;;;16.40;79.50;;;;;;5069321;28;19916;-74
2023/09/26 02:58:35;;;;;;;;;;;16.40;79.50;;;;;;5069433;28;20415;-75
2023/09/26 03:01:01;;;;;;;;;;;16.40;79.50;;;;;;5069253;28;19951;-74
2023/09/26 03:03:27;;;;;;;;;;;16.50;79.60;;;;;;5069180;28;19916;-74
2023/09/26 03:05:55;;;;;;;;;;;16.50;79.50;;;;;;5069157;28;19920;-74
2023/09/26 03:08:21;;;;;;;;;;;16.60;79.50;;;;;;5069128;28;19916;-75
2023/09/26 03:10:47;;;;;;;;;;;16.60;79.50;;;;;;5069135;28;19913;-74
2023/09/26 03:13:12;;;;;;;;;;;16.60;79.40;;;;;;5069073;28;19994;-75
2023/09/26 03:15:38;;;;;;;;;;;16.60;79.40;;;;;;5069044;28;19916;-75
2023/09/26 03:18:04;;;;;;;;;;;16.70;79.50;;;;;;5067670;28;20284;-74
2023/09/26 03:20:29;;;;;;;;;;;16.70;79.40;;;;;;5068885;28;19913;-75
2023/09/26 03:22:55;;;;;;;;;;;16.70;79.50;;;;;;5068779;28;19915;-75
2023/09/26 03:25:21;;;;;;;;;;;16.70;79.50;;;;;;5068659;28;19918;-75
2023/09/26 03:27:47;;;;;;;;;;;16.70;79.50;;;;;;5067115;28;20380;-75
2023/09/26 03:30:16;;;;;;;;;;;16.70;79.50;;;;;;5068886;28;19913;-74
2023/09/26 03:32:41;;;;;;;;;;;16.70;79.50;;;;;;5067338;28;19909;-74
2023/09/26 03:35:09;;;;;;;;;;;16.70;79.50;;;;;;5084196;28;20294;-75
2023/09/26 03:37:35;;;;;;;;;;;16.70;79.50;;;;;;5068530;28;20007;-74
2023/09/26 03:40:00;;;;;;;;;;;16.70;79.50;;;;;;5068630;28;19920;-75
2023/09/26 03:42:26;;;;;;;;;;;16.70;79.60;;;;;;5068531;28;20288;-74
2023/09/26 03:44:52;;;;;;;;;;;16.70;79.60;;;;;;5067057;28;19920;-74
2023/09/26 03:47:18;;;;;;;;;;;16.70;79.50;;;;;;5068423;28;19920;-75
2023/09/26 03:49:43;;;;;;;;;;;16.70;79.50;;;;;;5068382;28;20010;-75
2023/09/26 03:52:09;;;;;;;;;;;16.70;79.50;;;;;;5067049;28;20011;-75
2023/09/26 03:54:37;;;;;;;;;;;16.80;79.60;;;;;;5068002;28;19920;-75
2023/09/26 03:57:04;;;;;;;;;;;16.70;79.60;;;;;;5067910;28;19913;-75
2023/09/26 03:59:30;;;;;;;;;;;16.70;79.50;;;;;;5066721;28;19927;-75
2023/09/26 04:01:55;;;;;;;;;;;16.70;80.00;;;;;;5067776;28;19924;-75
2023/09/26 04:04:21;;;;;;;;;;;16.80;79.60;;;;;;5067918;28;19919;-74
2023/09/26 04:06:46;;;;;;;;;;;16.80;79.60;;;;;;5066690;28;19923;-74
2023/09/26 04:09:14;;;;;;;;;;;16.80;79.60;;;;;;5067303;28;21464;-74
2023/09/26 04:11:39;;;;;;;;;;;16.80;79.60;;;;;;5066806;28;19913;-75
2023/09/26 04:14:05;;;;;;;;;;;16.80;79.50;;;;;;5067889;28;19936;-75
2023/09/26 04:16:31;;;;;;;;;;;16.80;79.60;;;;;;5068042;28;20295;-75
2023/09/26 04:18:56;;;;;;;;;;;16.80;79.60;;;;;;5068019;28;19954;-75
2023/09/26 04:21:22;;;;;;;;;;;16.80;79.50;;;;;;5067888;28;19940;-74
2023/09/26 04:23:47;;;;;;;;;;;16.80;79.50;;;;;;5068145;28;19983;-74
2023/09/26 04:26:14;;;;;;;;;;;16.80;79.60;;;;;;5067762;28;19912;-74
2023/09/26 04:28:43;;;;;;;;;;;16.80;79.60;;;;;;5067897;28;19913;-75
2023/09/26 04:31:16;;;;;;;;;;;16.80;79.60;;;;;;5068163;28;19908;-74
2023/09/26 04:33:42;;;;;;;;;;;16.80;79.60;;;;;;5066478;28;19919;-74
2023/09/26 04:36:08;;;;;;;;;;;16.80;79.60;;;;;;5067719;28;19913;-75
2023/09/26 04:38:33;;;;;;;;;;;16.80;79.60;;;;;;5066276;28;19912;-75
2023/09/26 04:41:02;;;;;;;;;;;16.80;79.60;;;;;;5065925;28;19952;-75
2023/09/26 04:43:28;;;;;;;;;;;16.70;79.50;;;;;;5067627;28;20039;-75
2023/09/26 04:45:54;;;;;;;;;;;16.70;79.50;;;;;;5067919;28;19967;-75
2023/09/26 04:48:19;;;;;;;;;;;16.70;79.60;;;;;;5067587;28;19952;-75
2023/09/26 04:50:45;;;;;;;;;;;16.70;79.60;;;;;;5067545;28;19909;-75
2023/09/26 04:53:10;;;;;;;;;;;16.60;79.60;;;;;;5067414;28;19916;-75
2023/09/26 04:55:36;;;;;;;;;;;16.60;79.60;;;;;;5067557;28;20332;-75
2023/09/26 04:58:02;;;;;;;;;;;16.60;79.60;;;;;;5066272;28;19931;-74
2023/09/26 05:00:28;;;;;;;;;;;16.60;79.60;;;;;;5066006;28;19916;-75
2023/09/26 05:02:54;;;;;;;;;;;16.60;79.60;;;;;;5067260;28;19999;-75
2023/09/26 05:05:19;;;;;;;;;;;16.70;79.70;;;;;;5067286;28;20017;-75
2023/09/26 05:07:45;;;;;;;;;;;16.70;79.70;;;;;;5067466;28;20349;-75
2023/09/26 05:10:11;;;;;;;;;;;16.70;79.70;;;;;;5067228;28;19923;-75
2023/09/26 05:12:40;;;;;;;;;;;16.70;79.70;;;;;;5067182;28;20380;-75
2023/09/26 05:15:07;;;;;;;;;;;16.80;79.70;;;;;;5067391;28;19912;-75
2023/09/26 05:17:32;;;;;;;;;;;16.80;79.70;;;;;;5067303;28;19908;-74
2023/09/26 05:19:58;;;;;;;;;;;16.80;79.70;;;;;;5067248;28;20378;-74
2023/09/26 05:22:24;;;;;;;;;;;16.90;79.70;;;;;;5067325;28;19959;-75
2023/09/26 05:24:49;;;;;;;;;;;16.90;79.70;;;;;;5067138;28;19960;-75
2023/09/26 05:27:15;;;;;;;;;;;16.90;79.70;;;;;;5065943;28;19980;-75
2023/09/26 05:29:41;;;;;;;;;;;16.90;79.70;;;;;;5067257;28;19917;-75
2023/09/26 05:32:06;;;;;;;;;;;16.90;79.60;;;;;;5067008;28;19912;-74
2023/09/26 05:34:35;;;;;;;;;;;16.90;79.60;;;;;;5067019;28;19913;-75
2023/09/26 05:37:00;;;;;;;;;;;16.90;79.70;;;;;;5067099;28;20415;-74
2023/09/26 05:39:26;;;;;;;;;;;16.90;79.70;;;;;;5067108;28;20007;-74
2023/09/26 05:41:51;;;;;;;;;;;17.00;79.80;;;;;;5066087;28;19912;-75
2023/09/26 05:44:17;;;;;;;;;;;17.00;79.80;;;;;;5066939;28;20434;-75
2023/09/26 05:46:43;;;;;;;;;;;17.10;79.80;;;;;;5067226;28;19913;-76
2023/09/26 05:49:09;;;;;;;;;;;17.10;79.70;;;;;;5067080;28;20272;-75
2023/09/26 05:51:34;;;;;;;;;;;17.00;79.40;;;;;;5067838;28;19917;-75
2023/09/26 05:54:00;;;;;;;;;;;16.80;78.90;;;;;;5070444;28;19919;-75
2023/09/26 05:56:26;;;;;;;;;;;16.50;79.00;;;;;;5070310;28;19915;-75
2023/09/26 05:58:52;;;;;;;;;;;16.20;79.10;;;;;;5070552;28;20058;-75
2023/09/26 06:01:18;;;;;;;;;;;15.90;79.30;;;;;;5069871;28;20021;-75
2023/09/26 06:03:43;;;;;;;;;;;15.80;79.50;;;;;;5069874;28;19964;-75
2023/09/26 06:06:09;;;;;;;;;;;15.60;79.60;;;;;;5070066;28;19924;-76
2023/09/26 06:08:34;;;;;;;;;;;15.60;80.00;;;;;;5068577;28;20377;-75
2023/09/26 06:11:02;;;;;;;;;;;15.50;79.80;;;;;;5068274;28;19920;-76
2023/09/26 06:13:27;;;;;;;;;;;15.50;79.80;;;;;;5070100;28;20296;-75
2023/09/26 06:15:53;;;;;;;;;;;15.50;79.70;;;;;;5068614;28;19919;-75
2023/09/26 06:18:19;;;;;;;;;;;15.50;79.70;;;;;;5068623;28;20315;-75
2023/09/26 06:20:45;;;;;;;;;;;15.50;79.70;;;;;;5070002;28;19995;-75
2023/09/26 06:23:11;;;;;;;;;;;15.50;79.70;;;;;;5069835;28;20333;-75
2023/09/26 06:25:36;;;;;;;;;;;15.50;79.70;;;;;;5069746;28;20003;-75
2023/09/26 06:28:02;;;;;;;;;;;15.50;79.60;;;;;;5069591;28;20372;-75
2023/09/26 06:30:28;;;;;;;;;;;15.50;79.70;;;;;;5068529;28;19958;-75
2023/09/26 06:32:54;;;;;;;;;;;15.50;79.70;;;;;;5069604;28;19962;-75
2023/09/26 06:35:19;;;;;;;;;;;15.50;79.60;;;;;;5051460;28;20287;-75
2023/09/26 06:37:45;;;;;;;;;;;15.50;79.50;;;;;;5067456;28;19909;-75
2023/09/26 06:40:11;;;;;;;;;;;15.50;79.50;;;;;;5068840;28;20133;-75
2023/09/26 06:42:37;;;;;;;;;;;15.50;79.50;;;;;;5067303;28;19912;-75
2023/09/26 06:45:03;;;;;;;;;;;15.50;79.50;;;;;;5067375;28;19916;-74
2023/09/26 06:47:29;;;;;;;;;;;15.50;79.60;;;;;;5068591;28;19913;-74
2023/09/26 06:49:55;;;;;;;;;;;15.50;79.50;;;;;;5068848;28;20318;-74
2023/09/26 06:52:24;;;;;;;;;;;15.50;79.50;;;;;;5069308;28;19914;-78
2023/09/26 06:54:50;;;;;;;;;;;15.60;79.60;;;;;;5067956;28;20323;-75
2023/09/26 06:57:20;;;;;;;;;;;15.60;79.50;;;;;;5067212;28;19909;-73
2023/09/26 06:59:49;;;;;;;;;;;15.60;79.50;;;;;;5067092;28;20284;-73
2023/09/26 07:02:15;;;;;;;;;;;15.60;79.50;;;;;;5067878;28;19924;-73
2023/09/26 07:04:41;;;;;;;;;;;15.60;79.50;;;;;;5067211;28;20060;-71
2023/09/26 07:07:06;;;;;;;;;;;15.60;79.50;;;;;;5066676;28;19923;-74
2023/09/26 07:09:32;;;;;;;;;;;15.60;79.50;;;;;;5067001;28;20006;-73
2023/09/26 07:11:57;;;;;;;;;;;15.60;79.50;;;;;;5067886;28;19928;-75
2023/09/26 07:14:23;;;;;;;;;;;15.70;79.60;;;;;;5066211;28;19954;-76
2023/09/26 07:16:50;;;;;;;;;;;15.70;79.50;;;;;;5066039;28;19923;-73
2023/09/26 07:19:16;;;;;;;;;;;15.70;79.60;;;;;;5067560;28;19913;-76
2023/09/26 07:21:41;;;;;;;;;;;15.70;79.50;;;;;;5067962;28;19936;-74
2023/09/26 07:24:08;;;;;;;;;;;15.70;79.50;;;;;;5067463;28;19912;-75
2023/09/26 07:26:34;;;;;;;;;;;15.80;79.60;;;;;;5067948;28;19916;-75
2023/09/26 07:29:00;;;;;;;;;;;15.70;79.50;;;;;;5068137;28;19962;-74
2023/09/26 07:31:26;;;;;;;;;;;15.70;79.50;;;;;;5066731;28;19958;-73
2023/09/26 07:33:52;;;;;;;;;;;15.80;79.60;;;;;;5067519;28;20356;-75
2023/09/26 07:36:17;;;;;;;;;;;15.80;79.60;;;;;;5066348;28;19934;-75
2023/09/26 07:38:44;;;;;;;;;;;15.70;79.50;;;;;;5049998;28;19938;-75
2023/09/26 07:41:09;;;;;;;;;;;15.70;79.40;;;;;;5067775;28;19921;-75
2023/09/26 07:43:35;;;;;;;;;;;15.70;79.50;;;;;;5066255;28;19927;-75
2023/09/26 07:46:05;;;;;;;;;;;15.70;79.40;;;;;;5067503;28;19916;-75
2023/09/26 07:48:31;;;;;;;;;;;15.60;79.40;;;;;;5049890;28;19913;-75
2023/09/26 07:50:56;;;;;;;;;;;15.60;79.60;;;;;;5066681;28;19915;-76
2023/09/26 07:53:22;;;;;;;;;;;15.60;79.60;;;;;;5066169;28;20323;-75
2023/09/26 07:55:48;;;;;;;;;;;15.70;79.60;;;;;;5067719;28;19927;-74
2023/09/26 07:58:14;;;;;;;;;;;15.70;79.60;;;;;;5065535;28;20408;-74
2023/09/26 08:00:40;;;;;;;;;;;15.70;79.60;;;;;;5065463;28;19918;-75
2023/09/26 08:03:06;;;;;;;;;;;15.70;79.50;;;;;;5066248;28;19924;-71
2023/09/26 08:05:31;;;;;;;;;;;15.70;79.50;;;;;;5067055;28;19962;-72
2023/09/26 08:07:58;;;;;;;;;;;15.60;79.40;;;;;;5067563;28;19916;-75
2023/09/26 08:10:24;;;;;;;;;;;15.60;79.50;;;;;;5068079;28;19912;-75
2023/09/26 08:12:50;;;;;;;;;;;15.60;79.50;;;;;;5065440;28;20367;-75
2023/09/26 08:15:15;;;;;;;;;;;15.60;79.50;;;;;;5066764;28;19913;-75
2023/09/26 08:17:41;;;;;;;;;;;15.60;79.60;;;;;;5066548;28;19908;-73
2023/09/26 08:20:08;;;;;;;;;;;15.60;79.60;;;;;;5067985;28;20442;-76
2023/09/26 08:22:34;;;;;;;;;;;15.60;79.50;;;;;;5066490;28;19912;-71
2023/09/26 08:24:59;;;;;;;;;;;15.60;79.50;;;;;;5067616;28;19923;-76
2023/09/26 08:27:26;;;;;;;;;;;15.60;79.40;;;;;;5068160;28;19959;-75
2023/09/26 08:29:51;;;;;;;;;;;15.50;79.20;;;;;;5050535;28;19917;-74
2023/09/26 08:32:17;;;;;;;;;;;15.50;79.20;;;;;;5068368;28;19923;-72
2023/09/26 08:34:42;;;;;;;;;;;15.50;79.30;;;;;;5066718;28;20015;-73
2023/09/26 08:37:10;;;;;;;;;;;15.50;79.50;;;;;;5066773;28;20319;-72
2023/09/26 08:39:35;;;;;;;;;;;15.70;79.70;;;;;;5067787;28;19920;-72
2023/09/26 08:42:03;;;;;;;;;;;15.80;79.70;;;;;;5067415;28;19920;-73
2023/09/26 08:44:28;;;;;;;;;;;16.00;79.60;;;;;;5065740;28;19912;-73
2023/09/26 08:46:54;;;;;;;;;;;16.20;79.50;;;;;;5067226;28;19999;-73
2023/09/26 08:49:20;;;;;;;;;;;16.40;79.50;;;;;;5065751;28;19908;-74
2023/09/26 08:51:45;;;;;;;;;;;16.60;79.60;;;;;;5066562;28;19913;-74
2023/09/26 08:54:11;;;;;;;;;;;16.70;79.60;;;;;;5065679;28;19919;-74
2023/09/26 08:56:37;;;;;;;;;;;16.90;79.50;;;;;;5066555;28;20489;-72
2023/09/26 08:59:03;;;;;;;;;;;17.00;79.40;;;;;;5066936;28;19934;-74
2023/09/26 09:01:28;;;;;;;;;;;17.20;79.50;;;;;;5062949;28;19932;-70
2023/09/26 09:03:56;;;;;;;;;;;17.30;79.40;;;;;;5064854;28;19990;-74
2023/09/26 09:06:22;;;;;;;;;;;17.50;79.50;;;;;;5064634;28;19920;-75
2023/09/26 09:08:48;;;;;;;;;;;17.50;79.30;;;;;;5067172;28;19912;-74
2023/09/26 09:11:13;;;;;;;;;;;17.60;79.30;;;;;;5067182;28;19941;-74
2023/09/26 09:13:39;;;;;;;;;;;17.60;79.50;;;;;;5064815;28;19927;-75
2023/09/26 09:16:10;;;;;;;;;;;17.60;80.00;;;;;;5066687;28;19958;-75
2023/09/26 09:18:37;;;;;;;;;;;17.80;79.80;;;;;;5065618;28;20388;-75
2023/09/26 09:21:22;;;;;;;;;;;17.90;79.80;;;;;;5066849;28;19908;-75
2023/09/26 09:23:48;;;;;;;;;;;18.80;81.80;;;;;;5063095;28;19935;-75
2023/09/26 09:26:14;;;;;;;;;;;20.30;82.40;;;;;;5068978;28;20422;-75
2023/09/26 09:28:39;;;;;;;;;;;21.60;81.90;;;;;;5069134;28;19920;-74
2023/09/26 09:31:05;;;;;;;;;;;22.70;81.40;;;;;;5070347;28;19931;-75
2023/09/26 09:33:31;;;;;;;;;;;23.70;80.80;;;;;;5069855;28;19912;-75
2023/09/26 09:35:57;;;;;;;;;;;24.40;80.20;;;;;;5069881;28;19921;-76
2023/09/26 09:38:23;;;;;;;;;;;24.90;79.80;;;;;;5069732;28;20353;-76
2023/09/26 09:40:48;;;;;;;;;;;25.20;79.80;;;;;;5067893;28;19916;-77
2023/09/26 09:43:14;;;;;;;;;;;25.60;80.10;;;;;;5070007;28;19913;-77
2023/09/26 09:45:41;;;;;;;;;;;26.20;80.30;;;;;;5068198;28;19924;-76
2023/09/26 09:48:08;;;;;;;;;;;26.40;79.70;;;;;;5070010;28;20399;-75
2023/09/26 09:50:36;;;;;;;;;;;26.20;79.00;;;;;;5069140;28;19908;-76
2023/09/26 09:53:02;;;;;;;;;;;26.00;79.20;;;;;;5065410;28;20364;-75
2023/09/26 09:55:39;;;;;;;;;;;25.90;79.60;;;;;;5070075;28;19947;-75
2023/09/26 09:58:09;;;;;;;;;;;26.00;80.20;;;;;;5069689;28;19961;-75
2023/09/26 10:00:40;;;;;;;;;;;26.40;80.70;;;;;;5070597;28;20010;-72
2023/09/26 10:03:06;;;;;;;;;;;26.70;80.20;;;;;;5070075;28;19927;-74
2023/09/26 10:05:34;;;;;;;;;;;26.50;79.80;;;;;;5062980;28;20311;-74
2023/09/26 10:08:00;;;;;;;;;;;26.60;80.00;;;;;;5070428;28;19920;-72
2023/09/26 10:10:26;;;;;;;;;;;26.70;80.60;;;;;;5069117;28;20003;-73
2023/09/26 10:12:52;;;;;;;;;;;27.10;80.90;;;;;;5070480;28;19995;-73
2023/09/26 10:15:17;;;;;;;;;;;27.60;80.70;;;;;;5058143;28;19917;-73
2023/09/26 10:17:45;;;;;;;;;;;27.80;80.70;;;;;;5058891;28;19987;-74
2023/09/26 10:20:14;;;;;;;;;;;28.00;80.60;;;;;;5069750;28;19912;-74
2023/09/26 10:22:43;;;;;;;;;;;28.10;80.70;;;;;;5068308;28;19939;-72
2023/09/26 10:25:19;;;;;;;;;;;28.30;81.00;;;;;;5069429;28;19912;-71
2023/09/26 10:27:46;;;;;;;;;;;28.40;80.60;;;;;;5064845;28;20430;-71
2023/09/26 10:30:14;;;;;;;;;;;28.20;80.50;;;;;;5067949;28;20345;-72
2023/09/26 10:32:41;;;;;;;;;;;27.50;79.80;;;;;;5068524;28;20340;-65
2023/09/26 10:35:13;;;;;;;;;;;26.90;79.50;;;;;;5069543;28;19914;-71
2023/09/26 10:37:40;;;;;;;;;;;26.60;80.40;;;;;;5060865;28;19913;-71
2023/09/26 10:40:12;;;;;;;;;;;25.90;79.60;;;;;;5049888;28;19916;-72
2023/09/26 10:42:42;;;;;;;;;;;25.60;81.10;;;;;;5048876;28;19968;-71
2023/09/26 10:45:09;;;;;;;;;;;25.90;81.50;;;;;;5068377;28;20346;-71
2023/09/26 10:47:37;;;;;;;;;;;26.10;81.60;;;;;;5062553;28;20296;-71
2023/09/26 10:50:14;;;;;;;;;;;26.60;81.60;;;;;;5062536;28;20353;-71
2023/09/26 10:52:49;;;;;;;;;;;26.50;80.70;;;;;;5067562;28;19915;-74
2023/09/26 10:55:18;;;;;;;;;;;26.30;80.60;;;;;;5050792;28;20000;-74
2023/09/26 10:57:44;;;;;;;;;;;26.00;80.40;;;;;;5049770;28;19996;-71
2023/09/26 11:00:11;;;;;;;;;;;26.10;81.00;;;;;;5058270;28;19942;-73
2023/09/26 11:02:36;;;;;;;;;;;26.20;80.90;;;;;;5049215;28;20428;-71
2023/09/26 11:05:09;;;;;;;;;;;26.50;81.20;;;;;;5065146;28;20008;-72
2023/09/26 11:07:35;;;;;;;;;;;26.60;80.70;;;;;;5067867;28;19913;-72
2023/09/26 11:10:03;;;;;;;;;;;26.60;80.50;;;;;;5064292;28;19917;-72
2023/09/26 11:12:29;;;;;;;;;;;26.30;80.20;;;;;;5069164;28;19923;-72
2023/09/26 11:14:55;;;;;;;;;;;25.90;80.00;;;;;;5068524;28;19909;-72
2023/09/26 11:17:23;;;;;;;;;;;26.10;81.20;;;;;;5068644;28;19919;-72
2023/09/26 11:19:50;;;;;;;;;;;25.90;80.30;;;;;;5065251;28;19908;-72
2023/09/26 11:22:16;;;;;;;;;;;25.60;80.20;;;;;;5066482;28;19912;-72
2023/09/26 11:24:41;;;;;;;;;;;25.30;80.50;;;;;;5065995;28;19918;-71
2023/09/26 11:27:08;;;;;;;;;;;25.00;80.70;;;;;;5069097;28;20375;-71
2023/09/26 11:29:34;;;;;;;;;;;25.10;81.50;;;;;;5063901;28;19924;-71
2023/09/26 11:32:01;;;;;;;;;;;25.20;81.30;;;;;;5068314;28;19995;-72
2023/09/26 11:34:26;;;;;;;;;;;25.40;81.60;;;;;;5063284;28;20384;-71
2023/09/26 11:36:52;;;;;;;;;;;25.50;81.20;;;;;;5065447;28;19914;-72
2023/09/26 11:39:18;;;;;;;;;;;25.50;81.00;;;;;;5064279;28;19917;-72
2023/09/26 11:41:44;;;;;;;;;;;25.00;79.90;;;;;;5067344;28;19909;-72
2023/09/26 11:44:14;;;;;;;;;;;24.40;79.60;;;;;;5066172;28;19995;-70
2023/09/26 11:46:46;;;;;;;;;;;24.00;80.30;;;;;;5068416;28;19920;-72
2023/09/26 11:49:12;;;;;;;;;;;23.80;81.10;;;;;;5064999;28;19909;-68
2023/09/26 11:51:38;;;;;;;;;;;24.10;81.70;;;;;;5067366;28;19955;-70
2023/09/26 11:54:05;;;;;;;;;;;24.40;81.80;;;;;;5068675;28;20310;-70
2023/09/26 11:56:31;;;;;;;;;;;24.70;81.40;;;;;;5064703;28;19965;-71
2023/09/26 11:58:56;;;;;;;;;;;24.70;80.70;;;;;;5067955;28;19909;-69
2023/09/26 12:01:22;;;;;;;;;;;24.60;80.50;;;;;;5066693;28;19927;-70
2023/09/26 12:03:47;;;;;;;;;;;24.40;80.00;;;;;;5067829;28;19916;-69
2023/09/26 12:06:13;;;;;;;;;;;24.10;80.00;;;;;;5067664;28;19916;-68
2023/09/26 12:08:39;;;;;;;;;;;24.20;81.00;;;;;;5064988;28;19916;-70
2023/09/26 12:11:04;;;;;;;;;;;24.60;81.30;;;;;;5067944;28;19909;-69
2023/09/26 12:13:30;;;;;;;;;;;24.90;81.20;;;;;;5065628;28;20399;-67
2023/09/26 12:15:57;;;;;;;;;;;25.30;81.70;;;;;;5067868;28;19916;-71
2023/09/26 12:18:22;;;;;;;;;;;25.60;81.30;;;;;;5067370;28;20356;-71
2023/09/26 12:20:53;;;;;;;;;;;25.90;81.30;;;;;;5068051;28;19930;-71
2023/09/26 12:23:21;;;;;;;;;;;26.10;80.90;;;;;;5068215;28;20299;-72
2023/09/26 12:25:50;;;;;;;;;;;25.80;80.20;;;;;;5068311;28;19920;-70
2023/09/26 12:28:17;;;;;;;;;;;25.30;79.80;;;;;;5066669;28;19948;-71
2023/09/26 12:30:42;;;;;;;;;;;24.80;79.60;;;;;;5068376;28;20307;-71
2023/09/26 12:33:08;;;;;;;;;;;24.60;80.30;;;;;;5066586;28;19913;-69
2023/09/26 12:35:33;;;;;;;;;;;24.30;80.10;;;;;;5068049;28;19917;-70
2023/09/26 12:38:00;;;;;;;;;;;24.10;80.20;;;;;;5068152;28;19921;-71
2023/09/26 12:40:26;;;;;;;;;;;24.00;80.40;;;;;;5068065;28;20250;-70
2023/09/26 12:42:52;;;;;;;;;;;24.20;81.30;;;;;;5068048;28;19955;-74
2023/09/26 12:45:17;;;;;;;;;;;24.40;80.80;;;;;;5068181;28;19932;-71
2023/09/26 12:47:43;;;;;;;;;;;24.30;80.30;;;;;;5068423;28;19917;-72
2023/09/26 12:50:09;;;;;;;;;;;24.20;80.00;;;;;;5067210;28;19913;-71
2023/09/26 12:52:35;;;;;;;;;;;23.90;79.60;;;;;;5068490;28;20062;-71
2023/09/26 12:55:01;;;;;;;;;;;23.50;79.40;;;;;;5068158;28;20421;-70
2023/09/26 12:57:27;;;;;;;;;;;23.40;80.40;;;;;;5068394;28;19962;-71
2023/09/26 12:59:53;;;;;;;;;;;23.60;81.10;;;;;;5068149;28;20001;-71
2023/09/26 13:02:19;;;;;;;;;;;23.90;81.40;;;;;;5069792;28;19924;-70
2023/09/26 13:04:45;;;;;;;;;;;24.10;81.10;;;;;;5070790;28;19912;-70
2023/09/26 13:07:10;;;;;;;;;;;23.90;80.40;;;;;;5105056;28;20011;-71
2023/09/26 13:09:36;;;;;;;;;;;23.90;80.80;;;;;;5072280;28;20341;-72
2023/09/26 13:12:01;;;;;;;;;;;23.90;80.90;;;;;;5072732;28;19928;-74
2023/09/26 13:14:27;;;;;;;;;;;24.00;81.30;;;;;;5071066;28;19916;-72
2023/09/26 13:16:52;;;;;;;;;;;24.30;81.70;;;;;;5072365;28;20349;-71
2023/09/26 13:19:18;;;;;;;;;;;24.40;80.90;;;;;;5071845;28;19939;-72
2023/09/26 13:21:44;;;;;;;;;;;24.10;80.30;;;;;;5071999;28;19909;-72
2023/09/26 13:24:09;;;;;;;;;;;24.10;81.00;;;;;;5072227;28;19912;-72
2023/09/26 13:26:35;;;;;;;;;;;24.20;81.30;;;;;;5071962;28;19916;-73
2023/09/26 13:29:01;;;;;;;;;;;24.20;80.60;;;;;;5070287;28;19913;-73
2023/09/26 13:31:27;;;;;;;;;;;24.20;80.80;;;;;;5086798;28;19940;-72
2023/09/26 13:33:52;;;;;;;;;;;24.30;81.00;;;;;;5071972;28;19912;-72
2023/09/26 13:36:18;;;;;;;;;;;24.50;81.20;;;;;;5070444;28;19908;-73
2023/09/26 13:38:44;;;;;;;;;;;24.60;80.80;;;;;;5071047;28;19913;-75
2023/09/26 13:41:09;;;;;;;;;;;24.30;80.30;;;;;;5072065;28;19913;-73
2023/09/26 13:43:35;;;;;;;;;;;24.10;80.30;;;;;;5072087;28;19913;-73
2023/09/26 13:46:00;;;;;;;;;;;23.80;80.10;;;;;;5071893;28;19999;-74
2023/09/26 13:48:26;;;;;;;;;;;23.60;80.30;;;;;;5070008;28;20303;-68
2023/09/26 13:50:52;;;;;;;;;;;23.50;80.30;;;;;;5071049;28;19913;-75
2023/09/26 13:53:17;;;;;;;;;;;23.30;80.00;;;;;;5070035;28;19939;-75
2023/09/26 13:55:43;;;;;;;;;;;23.20;80.20;;;;;;5070091;28;19912;-74
2023/09/26 13:58:08;;;;;;;;;;;23.10;79.80;;;;;;5071278;28;19963;-75
2023/09/26 14:00:34;;;;;;;;;;;22.90;79.70;;;;;;5071553;28;19913;-74
2023/09/26 14:03:00;;;;;;;;;;;22.80;79.90;;;;;;5070393;28;19947;-73
2023/09/26 14:05:25;;;;;;;;;;;22.70;79.90;;;;;;5071667;28;19940;-74
2023/09/26 14:07:51;;;;;;;;;;;22.60;79.80;;;;;;5071901;28;19913;-73
2023/09/26 14:10:17;;;;;;;;;;;22.40;79.60;;;;;;5070461;28;19913;-74